| Date | Time | Temp. (oF) | Dew Point (oF) | Rel. Hum. (%) | Press. (in.) | Wind Dir. | Wind Speed (mph) | Hourly Rainfall (in.) |
|
|---|---|---|---|---|---|---|---|---|---|
| 1 | 10/19 | 00:00 | 46 | 31 | 56 | 30.28 | NNW | 4 | 0.00 |
| 2 | 10/18 | 23:00 | 46 | 30 | 55 | 30.28 | N | 4 | 0.00 |
| 3 | 10/18 | 22:00 | 48 | 29 | 49 | 30.26 | NNE | 2 | 0.00 |
| 4 | 10/18 | 21:00 | 50 | 29 | 45 | 30.24 | NNW | 4 | 0.00 |
| 5 | 10/18 | 20:00 | 51 | 30 | 45 | 30.23 | N | 8 | 0.00 |
| 6 | 10/18 | 19:00 | 53 | 30 | 43 | 30.21 | NNE | 8 | 0.00 |
| 7 | 10/18 | 18:00 | 55 | 32 | 42 | 30.17 | NNW | 3 | 0.00 |
| 8 | 10/18 | 17:00 | 57 | 32 | 39 | 30.14 | N | 7 | 0.00 |
| 9 | 10/18 | 16:00 | 59 | 33 | 38 | 30.14 | ENE | 9 | 0.00 |
| 10 | 10/18 | 15:00 | 57 | 31 | 38 | 30.14 | E | 4 | 0.00 |
| 11 | 10/18 | 14:00 | 57 | 33 | 41 | 30.16 | N | 8 | 0.00 |
| 12 | 10/18 | 13:00 | 56 | 35 | 46 | 30.17 | N | 7 | 0.00 |
| 13 | 10/18 | 12:00 | 53 | 34 | 50 | 30.18 | NE | 12 | 0.00 |
| 14 | 10/18 | 11:00 | 49 | 33 | 56 | 30.18 | NNE | 9 | 0.00 |
| 15 | 10/18 | 10:00 | 50 | 33 | 53 | 30.18 | E | 7 | 0.00 |
| 16 | 10/18 | 09:00 | 46 | 34 | 63 | 30.19 | NNE | 4 | 0.00 |
| 17 | 10/18 | 08:00 | 41 | 34 | 79 | 30.17 | NNW | 1 | 0.00 |
| 18 | 10/18 | 07:00 | 42 | 35 | 78 | 30.15 | N | 2 | 0.00 |
| 19 | 10/18 | 06:00 | 42 | 35 | 77 | 30.12 | N | 2 | 0.00 |
| 20 | 10/18 | 05:00 | 43 | 34 | 73 | 30.10 | NNW | 1 | 0.00 |
| 21 | 10/18 | 04:00 | 45 | 35 | 69 | 30.09 | WNW | 2 | 0.00 |
| 22 | 10/18 | 03:00 | 47 | 35 | 64 | 30.10 | NNE | 3 | 0.00 |
| 23 | 10/18 | 02:00 | 47 | 35 | 64 | 30.10 | NNE | 2 | 0.00 |
| 24 | 10/18 | 01:00 | 49 | 36 | 61 | 30.10 | N | 4 | 0.00 |